createdAt,value
2019-03-30T00:02:07.591Z,4.26
2019-03-30T00:04:38.243Z,4.17
2019-03-30T00:07:08.204Z,4.25
2019-03-30T00:09:38.727Z,4.21
2019-03-30T00:12:10.507Z,4.13
2019-03-30T00:14:41.264Z,3.97
2019-03-30T00:17:11.910Z,3.88
2019-03-30T00:19:42.665Z,3.95
2019-03-30T00:22:12.616Z,3.91
2019-03-30T00:24:43.152Z,3.66
2019-03-30T00:27:14.007Z,3.49
2019-03-30T00:29:44.638Z,3.42
2019-03-30T00:32:14.722Z,3.34
2019-03-30T00:34:45.241Z,3.21
2019-03-30T00:37:15.996Z,3.15
2019-03-30T00:39:47.146Z,3.26
2019-03-30T00:42:17.799Z,3.32
2019-03-30T00:44:48.564Z,3.33
2019-03-30T00:47:19.422Z,3.34
2019-03-30T00:49:50.371Z,3.60
2019-03-30T00:52:21.135Z,3.60
2019-03-30T00:54:51.996Z,3.49
2019-03-30T00:57:22.726Z,3.40
2019-03-30T00:59:53.376Z,3.46
2019-03-30T01:02:24.030Z,3.43
2019-03-30T01:04:53.895Z,3.44
2019-03-30T01:07:24.430Z,3.35
2019-03-30T01:09:55.184Z,3.39
2019-03-30T01:12:27.145Z,3.41
2019-03-30T01:14:57.918Z,3.24
2019-03-30T01:17:28.761Z,3.14
2019-03-30T01:20:03.015Z,3.15
2019-03-30T01:22:31.712Z,3.06
2019-03-30T01:25:02.448Z,2.96
2019-03-30T01:27:33.221Z,2.90
2019-03-30T01:30:03.976Z,2.94
2019-03-30T01:32:35.118Z,2.89
2019-03-30T01:35:07.495Z,2.88
2019-03-30T01:37:37.959Z,2.89
2019-03-30T01:40:08.506Z,2.84
2019-03-30T01:42:39.362Z,2.87
2019-03-30T01:45:10.337Z,2.85
2019-03-30T01:47:41.093Z,2.83
2019-03-30T01:50:17.734Z,2.82
2019-03-30T01:52:43.911Z,2.79
2019-03-30T01:55:14.685Z,2.73
2019-03-30T01:57:45.443Z,2.70
2019-03-30T02:00:16.992Z,2.74
2019-03-30T02:02:47.764Z,2.74
2019-03-30T02:05:18.621Z,2.70
2019-03-30T02:07:49.477Z,2.66
2019-03-30T02:10:37.949Z,2.62
2019-03-30T02:13:09.171Z,2.51
2019-03-30T02:15:39.839Z,2.42
2019-03-30T02:18:10.699Z,2.55
2019-03-30T02:20:43.802Z,2.48
2019-03-30T02:23:14.229Z,2.37
2019-03-30T02:25:45.110Z,2.39
2019-03-30T02:28:15.843Z,2.44
2019-03-30T02:30:46.514Z,2.54
2019-03-30T02:33:17.364Z,2.53
2019-03-30T02:35:48.121Z,2.54
2019-03-30T02:38:18.872Z,2.51
2019-03-30T02:40:49.732Z,2.44
2019-03-30T02:43:20.467Z,2.36
2019-03-30T02:45:51.121Z,2.44
2019-03-30T02:48:21.199Z,2.37
2019-03-30T02:50:51.572Z,2.30
2019-03-30T02:53:22.358Z,2.26
2019-03-30T02:55:53.027Z,2.36
2019-03-30T02:58:23.864Z,2.34
2019-03-30T03:00:54.535Z,2.28
2019-03-30T03:03:25.269Z,2.21
2019-03-30T03:05:55.940Z,2.20
2019-03-30T03:08:26.795Z,2.17
2019-03-30T03:10:57.548Z,2.10
2019-03-30T03:13:29.318Z,2.13
2019-03-30T03:15:59.977Z,2.10
2019-03-30T03:18:29.928Z,2.00
2019-03-30T03:21:07.903Z,2.01
2019-03-30T03:23:32.547Z,1.98
2019-03-30T03:26:03.614Z,1.92
2019-03-30T03:28:34.154Z,1.95
2019-03-30T03:31:04.905Z,1.95
2019-03-30T03:33:36.300Z,1.97
2019-03-30T03:36:07.132Z,1.92
2019-03-30T03:38:37.771Z,1.93
2019-03-30T03:41:07.632Z,1.98
2019-03-30T03:43:38.164Z,1.90
2019-03-30T03:46:08.800Z,1.90
2019-03-30T03:48:38.778Z,1.97
2019-03-30T03:51:24.815Z,2.02
2019-03-30T03:53:41.269Z,2.24
2019-03-30T03:56:11.235Z,2.33
2019-03-30T03:58:41.650Z,2.36
2019-03-30T04:01:12.419Z,2.46
2019-03-30T04:03:42.968Z,2.48
2019-03-30T04:06:13.829Z,2.52
2019-03-30T04:08:44.459Z,2.65
2019-03-30T04:11:15.110Z,2.67
2019-03-30T04:13:46.803Z,2.77
2019-03-30T04:16:17.559Z,2.93
2019-03-30T04:18:48.669Z,3.09
2019-03-30T04:21:19.455Z,3.15
2019-03-30T04:23:54.074Z,3.28
2019-03-30T04:26:22.521Z,3.34
2019-03-30T04:28:53.372Z,3.37
2019-03-30T04:31:24.148Z,3.36
2019-03-30T04:33:54.778Z,3.28
2019-03-30T04:36:25.614Z,3.36
2019-03-30T04:38:56.385Z,3.43
2019-03-30T04:41:27.141Z,3.48
2019-03-30T04:43:57.794Z,3.62
2019-03-30T04:46:28.649Z,3.78
2019-03-30T04:48:59.403Z,3.80
2019-03-30T04:51:30.138Z,3.77
2019-03-30T04:54:01.012Z,3.94
2019-03-30T04:56:31.866Z,4.01
2019-03-30T04:59:02.632Z,3.96
2019-03-30T05:01:33.286Z,4.07
2019-03-30T05:04:04.109Z,4.20
2019-03-30T05:06:37.011Z,4.42
2019-03-30T05:09:07.885Z,4.61
2019-03-30T05:11:38.523Z,4.69
2019-03-30T05:14:10.416Z,4.81
2019-03-30T05:16:41.170Z,4.92
2019-03-30T05:19:11.805Z,5.03
2019-03-30T05:21:42.558Z,5.19
2019-03-30T05:24:13.430Z,5.12
2019-03-30T05:26:44.192Z,5.24
2019-03-30T05:29:14.825Z,5.41
2019-03-30T05:31:45.574Z,5.52
2019-03-30T05:34:16.343Z,5.65
2019-03-30T05:36:46.981Z,5.70
2019-03-30T05:39:16.947Z,5.79
2019-03-30T05:41:47.490Z,5.89
2019-03-30T05:44:18.132Z,5.77
2019-03-30T05:46:48.092Z,5.73
2019-03-30T05:49:18.499Z,5.77
2019-03-30T05:51:49.269Z,5.86
2019-03-30T05:54:20.023Z,5.99
2019-03-30T05:56:50.879Z,6.02
2019-03-30T05:59:21.634Z,6.17
2019-03-30T06:01:52.273Z,6.20
2019-03-30T06:04:22.847Z,6.31
2019-03-30T06:06:53.687Z,6.44
2019-03-30T06:09:24.456Z,6.53
2019-03-30T06:11:55.200Z,6.74
2019-03-30T06:14:26.752Z,7.02
2019-03-30T06:16:57.507Z,7.27
2019-03-30T06:19:28.380Z,7.44
2019-03-30T06:21:59.233Z,7.47
2019-03-30T06:24:30.065Z,7.82
2019-03-30T06:27:00.723Z,8.23
2019-03-30T06:29:31.479Z,8.48
2019-03-30T06:32:02.351Z,9.02
2019-03-30T06:34:33.010Z,9.15
2019-03-30T06:37:02.965Z,9.18
2019-03-30T06:39:36.820Z,8.90
2019-03-30T06:42:05.576Z,8.70
2019-03-30T06:44:36.223Z,8.63
2019-03-30T06:47:06.960Z,8.81
2019-03-30T06:49:37.817Z,8.73
2019-03-30T06:52:08.587Z,9.00
2019-03-30T06:54:39.237Z,9.13
2019-03-30T06:57:10.102Z,9.42
2019-03-30T06:59:40.848Z,9.73
2019-03-30T07:02:11.602Z,9.55
2019-03-30T07:04:43.380Z,9.69
2019-03-30T07:07:14.032Z,9.62
2019-03-30T07:09:45.297Z,9.77
2019-03-30T07:12:15.640Z,9.88
2019-03-30T07:14:46.684Z,9.90
2019-03-30T07:17:17.049Z,10.12
2019-03-30T07:19:46.999Z,10.18
2019-03-30T07:22:16.943Z,10.35
2019-03-30T07:24:46.776Z,10.53
2019-03-30T07:27:16.610Z,10.61
2019-03-30T07:29:46.434Z,10.50
2019-03-30T07:32:16.277Z,10.66
2019-03-30T07:34:46.211Z,10.80
2019-03-30T07:37:16.046Z,10.85
2019-03-30T07:39:45.981Z,10.51
2019-03-30T07:42:15.805Z,10.63
2019-03-30T07:44:45.536Z,10.84
2019-03-30T07:47:15.789Z,10.88
2019-03-30T07:49:45.729Z,10.91
2019-03-30T07:52:15.548Z,10.85
2019-03-30T07:54:45.288Z,10.72
2019-03-30T07:57:17.418Z,10.75
2019-03-30T07:59:46.377Z,10.64
2019-03-30T08:02:16.212Z,10.76
2019-03-30T08:04:46.053Z,10.65
2019-03-30T08:07:15.887Z,11.11
2019-03-30T08:09:45.822Z,11.40
2019-03-30T08:12:16.167Z,11.55
2019-03-30T08:14:46.137Z,11.59
2019-03-30T08:17:17.257Z,11.94
2019-03-30T08:19:50.186Z,11.98
2019-03-30T08:22:18.160Z,12.24
2019-03-30T08:24:47.881Z,12.38
2019-03-30T08:27:17.826Z,12.06
2019-03-30T08:29:47.651Z,12.24
2019-03-30T08:32:17.390Z,12.82
2019-03-30T08:34:47.333Z,13.33
2019-03-30T08:37:17.153Z,14.02
2019-03-30T08:39:46.893Z,13.77
2019-03-30T08:42:16.827Z,13.22
2019-03-30T08:44:48.552Z,12.61
2019-03-30T08:47:18.027Z,12.14
2019-03-30T08:49:47.860Z,11.70
2019-03-30T08:52:17.693Z,11.38
2019-03-30T08:54:47.416Z,11.25
2019-03-30T08:57:17.262Z,11.43
2019-03-30T08:59:47.091Z,11.60
2019-03-30T09:02:16.916Z,11.51
2019-03-30T09:04:46.751Z,11.60
2019-03-30T09:07:16.585Z,11.65
2019-03-30T09:09:46.417Z,11.93
2019-03-30T09:12:16.258Z,11.83
2019-03-30T09:14:46.084Z,11.45
2019-03-30T09:17:15.928Z,11.66
2019-03-30T09:19:45.861Z,11.50
2019-03-30T09:22:15.694Z,11.59
2019-03-30T09:24:46.551Z,11.55
2019-03-30T09:27:16.385Z,11.79
2019-03-30T09:29:46.424Z,11.82
2019-03-30T09:32:16.463Z,11.73
2019-03-30T09:34:46.285Z,11.73
2019-03-30T09:37:16.128Z,12.19
2019-03-30T09:39:45.952Z,12.08
2019-03-30T09:42:15.895Z,12.22
2019-03-30T09:44:45.721Z,12.61
2019-03-30T09:47:15.564Z,12.97
2019-03-30T09:49:45.499Z,12.73
2019-03-30T09:52:15.842Z,12.76
2019-03-30T09:54:45.575Z,12.45
2019-03-30T09:57:15.510Z,12.13
2019-03-30T09:59:45.035Z,12.31
2019-03-30T10:02:14.975Z,12.52
2019-03-30T10:04:44.907Z,12.25
2019-03-30T10:07:14.749Z,11.85
2019-03-30T10:09:47.163Z,12.07
2019-03-30T10:12:15.831Z,11.88
2019-03-30T10:14:45.664Z,11.94
2019-03-30T10:17:15.507Z,12.05
2019-03-30T10:19:53.126Z,12.27
2019-03-30T10:22:17.731Z,12.61
2019-03-30T10:24:47.564Z,12.44
2019-03-30T10:27:17.387Z,12.20
2019-03-30T10:29:47.119Z,12.40
2019-03-30T10:32:16.961Z,12.29
2019-03-30T10:34:46.796Z,12.18
2019-03-30T10:37:16.517Z,12.27
2019-03-30T10:39:46.351Z,12.35
2019-03-30T10:42:16.295Z,12.46
2019-03-30T10:44:46.128Z,12.12
2019-03-30T10:47:15.962Z,11.80
2019-03-30T10:49:45.890Z,11.87
2019-03-30T10:52:15.834Z,12.17
2019-03-30T10:54:52.456Z,12.06
2019-03-30T10:57:16.931Z,12.07
2019-03-30T10:59:46.765Z,12.18
2019-03-30T11:02:16.599Z,12.38
2019-03-30T11:04:46.422Z,12.36
2019-03-30T11:07:16.156Z,12.11
2019-03-30T11:09:49.339Z,12.64
2019-03-30T11:12:18.083Z,13.03
2019-03-30T11:14:47.599Z,12.64
2019-03-30T11:17:19.323Z,12.59
2019-03-30T11:19:49.216Z,12.55
2019-03-30T11:22:18.838Z,12.90
2019-03-30T11:24:48.569Z,12.92
2019-03-30T11:27:18.404Z,12.57
2019-03-30T11:29:48.243Z,12.55
2019-03-30T11:32:18.075Z,12.61
2019-03-30T11:34:47.910Z,12.52
2019-03-30T11:37:17.742Z,12.56
2019-03-30T11:39:47.474Z,12.34
2019-03-30T11:42:17.308Z,12.34
2019-03-30T11:44:47.133Z,12.29
2019-03-30T11:47:17.076Z,12.40
2019-03-30T11:49:47.013Z,12.37
2019-03-30T11:52:16.836Z,12.42
2019-03-30T11:54:46.576Z,12.41
2019-03-30T11:57:16.517Z,12.56
2019-03-30T11:59:46.345Z,12.70
2019-03-30T12:02:27.257Z,12.81
2019-03-30T12:04:47.548Z,12.81
2019-03-30T12:07:17.381Z,12.76
2019-03-30T12:09:47.111Z,12.90
2019-03-30T12:12:17.046Z,12.79
2019-03-30T12:14:46.880Z,12.73
2019-03-30T12:17:16.611Z,12.61
2019-03-30T12:19:46.334Z,13.11
2019-03-30T12:22:16.175Z,12.84
2019-03-30T12:24:46.011Z,13.11
2019-03-30T12:27:15.834Z,13.09
2019-03-30T12:29:45.676Z,13.44
2019-03-30T12:32:15.613Z,13.85
2019-03-30T12:34:45.444Z,14.30
2019-03-30T12:37:15.278Z,14.59
2019-03-30T12:39:45.215Z,15.01
2019-03-30T12:42:15.151Z,14.83
2019-03-30T12:44:44.985Z,14.43
2019-03-30T12:47:14.919Z,14.18
2019-03-30T12:49:45.394Z,14.44
2019-03-30T12:52:15.608Z,14.19
2019-03-30T12:54:45.545Z,14.00
2019-03-30T12:57:15.370Z,14.44
2019-03-30T12:59:45.211Z,14.43
2019-03-30T13:02:15.044Z,14.46
2019-03-30T13:04:44.878Z,14.54
2019-03-30T13:07:14.706Z,14.84
2019-03-30T13:09:44.647Z,14.82
2019-03-30T13:12:14.482Z,15.05
2019-03-30T13:14:44.305Z,14.33
2019-03-30T13:17:14.045Z,14.67
2019-03-30T13:19:43.870Z,14.63
2019-03-30T13:22:14.836Z,14.54
2019-03-30T13:24:44.673Z,14.66
2019-03-30T13:27:14.495Z,14.25
2019-03-30T13:29:44.439Z,14.37
2019-03-30T13:32:14.268Z,14.10
2019-03-30T13:34:44.098Z,14.44
2019-03-30T13:37:17.406Z,14.31
2019-03-30T13:39:46.945Z,14.16
2019-03-30T13:42:16.879Z,14.42
2019-03-30T13:44:46.817Z,14.13
2019-03-30T13:47:16.648Z,14.13
2019-03-30T13:49:46.476Z,14.57
2019-03-30T13:52:16.418Z,14.42
2019-03-30T13:54:46.967Z,14.38
2019-03-30T13:57:16.697Z,14.29
2019-03-30T13:59:46.522Z,14.32
2019-03-30T14:02:16.359Z,14.02
2019-03-30T14:04:46.197Z,14.07
2019-03-30T14:07:16.236Z,14.22
2019-03-30T14:09:46.062Z,14.37
2019-03-30T14:12:16.005Z,13.93
2019-03-30T14:14:45.831Z,13.83
2019-03-30T14:17:20.262Z,13.67
2019-03-30T14:19:49.997Z,13.83
2019-03-30T14:22:20.035Z,14.34
2019-03-30T14:24:49.979Z,14.20
2019-03-30T14:27:20.018Z,14.89
2019-03-30T14:29:49.850Z,15.19
2019-03-30T14:32:19.679Z,15.09
2019-03-30T14:34:49.725Z,14.40
2019-03-30T14:37:19.658Z,13.65
2019-03-30T14:39:49.491Z,14.26
2019-03-30T14:42:19.426Z,15.36
2019-03-30T14:44:49.363Z,15.21
2019-03-30T14:47:19.084Z,14.56
2019-03-30T14:49:49.029Z,13.77
2019-03-30T14:52:18.853Z,13.47
2019-03-30T14:54:52.966Z,13.16
2019-03-30T14:57:19.966Z,13.06
2019-03-30T14:59:49.786Z,13.07
2019-03-30T15:02:19.629Z,12.86
2019-03-30T15:04:49.564Z,12.77
2019-03-30T15:07:19.503Z,12.71
2019-03-30T15:09:49.323Z,12.65
2019-03-30T15:12:19.373Z,12.60
2019-03-30T15:14:49.306Z,12.55
2019-03-30T15:17:19.248Z,12.47
2019-03-30T15:19:49.076Z,12.42
2019-03-30T15:22:19.012Z,12.36
2019-03-30T15:24:50.063Z,12.32
2019-03-30T15:27:19.700Z,12.19
2019-03-30T15:29:49.638Z,12.19
2019-03-30T15:32:19.572Z,12.14
2019-03-30T15:34:49.510Z,12.04
2019-03-30T15:37:19.443Z,11.91
2019-03-30T15:39:49.485Z,11.78
2019-03-30T15:42:19.314Z,11.67
2019-03-30T15:44:49.140Z,11.70
2019-03-30T15:47:19.085Z,11.45
2019-03-30T15:49:48.911Z,11.36
2019-03-30T15:52:18.854Z,11.21
2019-03-30T15:54:48.903Z,11.06
2019-03-30T15:57:18.825Z,10.98
2019-03-30T15:59:48.550Z,10.88
2019-03-30T16:02:18.076Z,10.77
2019-03-30T16:04:48.021Z,10.62
2019-03-30T16:07:17.743Z,10.51
2019-03-30T16:09:47.687Z,10.35
2019-03-30T16:12:17.513Z,10.17
2019-03-30T16:14:47.242Z,9.98
2019-03-30T16:17:18.108Z,9.94
2019-03-30T16:19:47.932Z,9.92
2019-03-30T16:22:17.869Z,9.85
2019-03-30T16:24:47.914Z,9.78
2019-03-30T16:27:28.677Z,9.68
2019-03-30T16:29:50.138Z,9.57
2019-03-30T16:32:19.973Z,9.38
2019-03-30T16:34:50.010Z,9.27
2019-03-30T16:37:19.626Z,9.07
2019-03-30T16:39:49.267Z,8.92
2019-03-30T16:42:19.093Z,8.77
2019-03-30T16:44:48.925Z,8.71
2019-03-30T16:47:18.890Z,8.62
2019-03-30T16:49:48.807Z,8.50
2019-03-30T16:52:18.632Z,8.40
2019-03-30T16:54:48.472Z,8.29
2019-03-30T16:57:18.412Z,8.15
2019-03-30T16:59:48.446Z,8.06
2019-03-30T17:02:18.271Z,7.97
2019-03-30T17:04:48.215Z,7.93
2019-03-30T17:07:18.038Z,7.80
2019-03-30T17:09:47.985Z,7.68
2019-03-30T17:12:17.818Z,7.55
2019-03-30T17:14:47.855Z,7.42
2019-03-30T17:17:17.791Z,7.28
2019-03-30T17:19:47.726Z,7.20
2019-03-30T17:22:17.550Z,7.13
2019-03-30T17:24:47.385Z,7.10
2019-03-30T17:27:17.217Z,7.04
2019-03-30T17:29:48.185Z,6.97
2019-03-30T17:32:18.224Z,6.95
2019-03-30T17:34:47.842Z,6.85
2019-03-30T17:37:17.676Z,6.80
2019-03-30T17:39:47.611Z,6.71
2019-03-30T17:42:17.689Z,6.62
2019-03-30T17:44:47.697Z,6.55
2019-03-30T17:47:17.726Z,6.47
2019-03-30T17:49:47.569Z,6.33
2019-03-30T17:52:17.404Z,6.22
2019-03-30T17:54:47.226Z,6.14
2019-03-30T17:57:17.598Z,6.06
2019-03-30T17:59:47.403Z,6.02
2019-03-30T18:02:17.245Z,5.91
2019-03-30T18:04:47.182Z,5.82
2019-03-30T18:07:17.008Z,5.75
2019-03-30T18:09:46.950Z,5.68
2019-03-30T18:12:20.257Z,5.69
2019-03-30T18:14:48.143Z,5.63
2019-03-30T18:17:17.976Z,5.51
2019-03-30T18:19:47.920Z,5.44
2019-03-30T18:22:17.746Z,5.42
2019-03-30T18:24:47.578Z,5.35
2019-03-30T18:27:17.525Z,5.39
2019-03-30T18:29:47.357Z,5.37
2019-03-30T18:32:18.417Z,5.41
2019-03-30T18:34:48.045Z,5.30
2019-03-30T18:37:18.084Z,5.21
2019-03-30T18:39:48.020Z,5.17
2019-03-30T18:42:17.649Z,5.00
2019-03-30T18:44:47.472Z,4.88
2019-03-30T18:47:17.308Z,4.82
2019-03-30T18:49:47.147Z,4.82
2019-03-30T18:52:16.982Z,4.96
2019-03-30T18:54:46.918Z,4.97
2019-03-30T18:57:16.957Z,4.82
2019-03-30T18:59:46.992Z,4.73
2019-03-30T19:02:19.106Z,4.72
2019-03-30T19:04:48.193Z,4.68
2019-03-30T19:07:18.130Z,4.62
2019-03-30T19:09:47.967Z,4.67
2019-03-30T19:12:17.800Z,4.77
2019-03-30T19:14:47.733Z,4.57
2019-03-30T19:17:17.565Z,4.52
2019-03-30T19:19:50.128Z,4.45
2019-03-30T19:22:18.859Z,4.39
2019-03-30T19:24:48.807Z,4.34
2019-03-30T19:27:18.637Z,4.26
2019-03-30T19:29:48.463Z,4.19
2019-03-30T19:32:18.501Z,4.21
2019-03-30T19:34:48.333Z,4.14
2019-03-30T19:37:18.279Z,4.08
2019-03-30T19:39:48.218Z,4.06
2019-03-30T19:42:18.149Z,3.98
2019-03-30T19:44:47.873Z,3.93
2019-03-30T19:47:17.818Z,3.94
2019-03-30T19:49:47.641Z,3.94
2019-03-30T19:52:17.483Z,3.87
2019-03-30T19:54:47.418Z,3.86
2019-03-30T19:57:17.353Z,3.84
2019-03-30T19:59:47.077Z,3.81
2019-03-30T20:02:17.023Z,3.78
2019-03-30T20:04:46.956Z,3.79
2019-03-30T20:07:16.783Z,3.74
2019-03-30T20:09:46.725Z,3.74
2019-03-30T20:12:16.685Z,3.68
2019-03-30T20:14:46.791Z,3.63
2019-03-30T20:17:16.830Z,3.58
2019-03-30T20:19:46.829Z,3.58
2019-03-30T20:22:16.599Z,3.61
2019-03-30T20:24:46.432Z,3.58
2019-03-30T20:27:16.274Z,3.61
2019-03-30T20:29:47.032Z,3.55
2019-03-30T20:32:17.153Z,3.54
2019-03-30T20:34:46.899Z,3.59
2019-03-30T20:37:17.327Z,3.57
2019-03-30T20:39:47.619Z,3.55
2019-03-30T20:42:17.875Z,3.45
2019-03-30T20:44:48.459Z,3.44
2019-03-30T20:47:19.927Z,3.33
2019-03-30T20:49:50.494Z,3.32
2019-03-30T20:52:21.223Z,3.32
2019-03-30T20:54:51.519Z,3.33
2019-03-30T20:57:21.787Z,3.29
2019-03-30T20:59:51.575Z,3.23
2019-03-30T21:02:21.407Z,3.17
2019-03-30T21:04:51.448Z,3.13
2019-03-30T21:07:21.278Z,3.14
2019-03-30T21:09:51.215Z,3.11
2019-03-30T21:12:21.151Z,3.10
2019-03-30T21:14:50.986Z,3.04
2019-03-30T21:17:20.921Z,2.99
2019-03-30T21:19:50.745Z,2.94
2019-03-30T21:22:20.699Z,3.06
2019-03-30T21:24:50.513Z,3.26
2019-03-30T21:27:20.458Z,3.17
2019-03-30T21:29:54.866Z,3.15
2019-03-30T21:32:21.354Z,3.10
2019-03-30T21:34:51.390Z,3.05
2019-03-30T21:37:21.223Z,3.01
2019-03-30T21:39:51.047Z,2.97
2019-03-30T21:42:20.992Z,2.97
2019-03-30T21:44:50.928Z,3.04
2019-03-30T21:47:20.761Z,3.12
2019-03-30T21:49:50.696Z,3.22
2019-03-30T21:52:22.169Z,3.18
2019-03-30T21:54:51.888Z,3.16
2019-03-30T21:57:21.832Z,3.02
2019-03-30T21:59:51.657Z,2.91
2019-03-30T22:02:21.602Z,2.87
2019-03-30T22:04:51.537Z,2.75
2019-03-30T22:07:21.260Z,2.71
2019-03-30T22:09:51.093Z,2.64
2019-03-30T22:12:21.054Z,2.58
2019-03-30T22:14:50.863Z,2.59
2019-03-30T22:17:26.739Z,2.57
2019-03-30T22:19:56.673Z,2.56
2019-03-30T22:22:26.612Z,2.58
2019-03-30T22:24:56.545Z,2.52
2019-03-30T22:27:28.621Z,2.43
2019-03-30T22:29:58.565Z,2.32
2019-03-30T22:32:32.685Z,2.28
2019-03-30T22:35:02.936Z,2.24
2019-03-30T22:37:32.872Z,2.22
2019-03-30T22:40:02.593Z,2.23
2019-03-30T22:42:32.435Z,2.29
2019-03-30T22:45:02.377Z,2.29
2019-03-30T22:47:32.205Z,2.24
2019-03-30T22:50:02.245Z,2.28
2019-03-30T22:52:32.178Z,2.15
2019-03-30T22:55:02.003Z,2.08
2019-03-30T22:57:31.946Z,2.07
2019-03-30T23:00:01.884Z,2.05
2019-03-30T23:02:31.818Z,2.08
2019-03-30T23:05:01.543Z,2.04
2019-03-30T23:07:31.374Z,2.06
2019-03-30T23:10:01.319Z,2.04
2019-03-30T23:12:31.153Z,2.02
2019-03-30T23:15:00.977Z,1.96
2019-03-30T23:17:30.921Z,1.88
2019-03-30T23:20:00.859Z,1.82
2019-03-30T23:22:30.578Z,1.79
2019-03-30T23:25:00.523Z,1.82
2019-03-30T23:27:30.459Z,1.87
2019-03-30T23:30:00.504Z,1.87
2019-03-30T23:32:30.535Z,2.01
2019-03-30T23:35:00.577Z,2.13
2019-03-30T23:37:30.909Z,2.49
2019-03-30T23:40:00.854Z,2.62
2019-03-30T23:42:30.575Z,2.60
2019-03-30T23:45:00.409Z,2.39
2019-03-30T23:47:30.352Z,2.19
2019-03-30T23:50:00.358Z,2.01
2019-03-30T23:52:30.321Z,2.00
2019-03-30T23:55:00.344Z,1.95
2019-03-30T23:57:30.402Z,1.88
